sensor_id;sensor_type;location;lat;lon;timestamp;pressure;altitude;pressure_sealevel;temperature;humidity
29461;BME280;16428;47.836;35.106;2022-11-20T00:02:53;101938.13;;;4.87;100.00
29461;BME280;16428;47.836;35.106;2022-11-20T00:05:24;101938.66;;;4.79;100.00
29461;BME280;16428;47.836;35.106;2022-11-20T00:07:53;101914.31;;;4.73;100.00
29461;BME280;16428;47.836;35.106;2022-11-20T00:10:38;101920.06;;;4.67;100.00
29461;BME280;16428;47.836;35.106;2022-11-20T00:13:08;101938.44;;;4.82;100.00
29461;BME280;16428;47.836;35.106;2022-11-20T00:15:38;101925.47;;;4.78;100.00
29461;BME280;16428;47.836;35.106;2022-11-20T00:18:09;101908.41;;;4.80;100.00
29461;BME280;16428;47.836;35.106;2022-11-20T00:20:37;101917.69;;;4.87;100.00
29461;BME280;16428;47.836;35.106;2022-11-20T00:23:07;101920.59;;;4.72;100.00
29461;BME280;16428;47.836;35.106;2022-11-20T00:25:38;101904.53;;;4.73;100.00
29461;BME280;16428;47.836;35.106;2022-11-20T00:28:11;101899.19;;;4.73;100.00
29461;BME280;16428;47.836;35.106;2022-11-20T00:30:41;101894.84;;;4.72;100.00
29461;BME280;16428;47.836;35.106;2022-11-20T00:33:10;101900.91;;;4.62;100.00
29461;BME280;16428;47.836;35.106;2022-11-20T00:35:40;101906.31;;;4.73;100.00
29461;BME280;16428;47.836;35.106;2022-11-20T00:38:10;101886.06;;;4.83;100.00
29461;BME280;16428;47.836;35.106;2022-11-20T00:40:39;101891.31;;;4.72;100.00
29461;BME280;16428;47.836;35.106;2022-11-20T00:43:08;101888.50;;;4.86;100.00
29461;BME280;16428;47.836;35.106;2022-11-20T00:45:38;101899.19;;;4.73;100.00
29461;BME280;16428;47.836;35.106;2022-11-20T00:48:08;101915.03;;;4.75;100.00
29461;BME280;16428;47.836;35.106;2022-11-20T00:50:39;101922.59;;;4.81;100.00
29461;BME280;16428;47.836;35.106;2022-11-20T00:53:09;101916.19;;;4.83;100.00
29461;BME280;16428;47.836;35.106;2022-11-20T00:55:39;101908.78;;;4.63;100.00
29461;BME280;16428;47.836;35.106;2022-11-20T00:58:07;101894.31;;;4.67;100.00
29461;BME280;16428;47.836;35.106;2022-11-20T01:00:42;101887.34;;;4.77;100.00
29461;BME280;16428;47.836;35.106;2022-11-20T01:03:10;101870.88;;;4.59;100.00
29461;BME280;16428;47.836;35.106;2022-11-20T01:05:42;101865.41;;;4.74;100.00
29461;BME280;16428;47.836;35.106;2022-11-20T01:08:13;101888.34;;;4.64;100.00
29461;BME280;16428;47.836;35.106;2022-11-20T01:10:43;101904.72;;;4.70;100.00
29461;BME280;16428;47.836;35.106;2022-11-20T01:13:12;101903.91;;;4.57;100.00
29461;BME280;16428;47.836;35.106;2022-11-20T01:16:17;101895.41;;;4.52;100.00
29461;BME280;16428;47.836;35.106;2022-11-20T01:18:49;101896.63;;;4.59;100.00
29461;BME280;16428;47.836;35.106;2022-11-20T01:21:32;101891.31;;;4.59;100.00
29461;BME280;16428;47.836;35.106;2022-11-20T01:24:03;101891.25;;;4.48;100.00
29461;BME280;16428;47.836;35.106;2022-11-20T01:26:40;101882.84;;;4.54;100.00
29461;BME280;16428;47.836;35.106;2022-11-20T01:29:21;101870.59;;;4.51;100.00
29461;BME280;16428;47.836;35.106;2022-11-20T01:31:52;101859.63;;;4.43;100.00
29461;BME280;16428;47.836;35.106;2022-11-20T01:34:24;101852.41;;;4.58;100.00
29461;BME280;16428;47.836;35.106;2022-11-20T01:36:53;101860.13;;;4.61;100.00
29461;BME280;16428;47.836;35.106;2022-11-20T01:39:25;101844.69;;;4.66;100.00
29461;BME280;16428;47.836;35.106;2022-11-20T01:41:56;101834.72;;;4.57;100.00
29461;BME280;16428;47.836;35.106;2022-11-20T01:44:59;101819.34;;;4.60;100.00
29461;BME280;16428;47.836;35.106;2022-11-20T01:47:44;101820.34;;;4.83;100.00
29461;BME280;16428;47.836;35.106;2022-11-20T01:50:22;101826.63;;;4.82;100.00
29461;BME280;16428;47.836;35.106;2022-11-20T01:53:02;101831.66;;;4.74;100.00
29461;BME280;16428;47.836;35.106;2022-11-20T01:55:35;101829.94;;;4.86;100.00
29461;BME280;16428;47.836;35.106;2022-11-20T01:58:05;101818.88;;;4.79;100.00
29461;BME280;16428;47.836;35.106;2022-11-20T02:00:35;101815.94;;;4.71;100.00
29461;BME280;16428;47.836;35.106;2022-11-20T02:03:11;101821.59;;;4.67;100.00
29461;BME280;16428;47.836;35.106;2022-11-20T02:08:27;101835.53;;;4.70;100.00
29461;BME280;16428;47.836;35.106;2022-11-20T02:10:56;101850.22;;;4.63;100.00
29461;BME280;16428;47.836;35.106;2022-11-20T02:13:25;101838.47;;;4.78;100.00
29461;BME280;16428;47.836;35.106;2022-11-20T02:16:25;101848.47;;;4.75;100.00
29461;BME280;16428;47.836;35.106;2022-11-20T02:19:00;101879.81;;;4.71;100.00
29461;BME280;16428;47.836;35.106;2022-11-20T02:21:52;101900.00;;;4.74;100.00
29461;BME280;16428;47.836;35.106;2022-11-20T02:24:27;101826.41;;;4.85;100.00
29461;BME280;16428;47.836;35.106;2022-11-20T02:27:25;101821.16;;;4.97;100.00
29461;BME280;16428;47.836;35.106;2022-11-20T02:29:59;101822.78;;;4.86;100.00
29461;BME280;16428;47.836;35.106;2022-11-20T02:32:35;101795.25;;;4.99;100.00
29461;BME280;16428;47.836;35.106;2022-11-20T02:37:52;101786.81;;;4.81;100.00
29461;BME280;16428;47.836;35.106;2022-11-20T02:40:21;101780.94;;;4.88;100.00
29461;BME280;16428;47.836;35.106;2022-11-20T02:42:55;101774.13;;;4.84;100.00
29461;BME280;16428;47.836;35.106;2022-11-20T02:45:24;101776.75;;;4.73;100.00
29461;BME280;16428;47.836;35.106;2022-11-20T02:47:56;101794.38;;;4.74;100.00
29461;BME280;16428;47.836;35.106;2022-11-20T02:50:25;101800.19;;;4.68;100.00
29461;BME280;16428;47.836;35.106;2022-11-20T02:52:58;101821.94;;;4.86;100.00
29461;BME280;16428;47.836;35.106;2022-11-20T02:55:26;101826.97;;;4.78;100.00
29461;BME280;16428;47.836;35.106;2022-11-20T02:57:56;101805.19;;;4.73;100.00
29461;BME280;16428;47.836;35.106;2022-11-20T03:00:24;101790.06;;;4.73;100.00
29461;BME280;16428;47.836;35.106;2022-11-20T03:02:52;101785.69;;;4.72;100.00
29461;BME280;16428;47.836;35.106;2022-11-20T03:05:20;101783.53;;;4.77;100.00
29461;BME280;16428;47.836;35.106;2022-11-20T03:07:50;101796.94;;;4.76;100.00
29461;BME280;16428;47.836;35.106;2022-11-20T03:10:19;101814.25;;;4.70;100.00
29461;BME280;16428;47.836;35.106;2022-11-20T03:12:55;101815.25;;;4.80;100.00
29461;BME280;16428;47.836;35.106;2022-11-20T03:15:23;101816.22;;;4.79;100.00
29461;BME280;16428;47.836;35.106;2022-11-20T03:17:56;101809.47;;;4.86;100.00
29461;BME280;16428;47.836;35.106;2022-11-20T03:20:24;101800.81;;;4.72;100.00
29461;BME280;16428;47.836;35.106;2022-11-20T03:22:54;101797.56;;;4.79;100.00
29461;BME280;16428;47.836;35.106;2022-11-20T03:25:27;101811.75;;;4.80;100.00
29461;BME280;16428;47.836;35.106;2022-11-20T03:27:57;101833.47;;;4.74;100.00
29461;BME280;16428;47.836;35.106;2022-11-20T03:30:25;101858.91;;;4.78;100.00
29461;BME280;16428;47.836;35.106;2022-11-20T03:33:00;101864.09;;;4.55;100.00
29461;BME280;16428;47.836;35.106;2022-11-20T03:35:28;101860.88;;;4.63;100.00
29461;BME280;16428;47.836;35.106;2022-11-20T03:37:58;101868.44;;;4.69;100.00
29461;BME280;16428;47.836;35.106;2022-11-20T03:40:26;101871.72;;;4.60;100.00
29461;BME280;16428;47.836;35.106;2022-11-20T03:42:55;101867.03;;;4.64;100.00
29461;BME280;16428;47.836;35.106;2022-11-20T03:45:25;101881.72;;;4.69;100.00
29461;BME280;16428;47.836;35.106;2022-11-20T03:47:57;101893.63;;;4.76;100.00
29461;BME280;16428;47.836;35.106;2022-11-20T03:50:27;101873.75;;;4.69;100.00
29461;BME280;16428;47.836;35.106;2022-11-20T03:52:55;101885.69;;;4.64;100.00
29461;BME280;16428;47.836;35.106;2022-11-20T03:55:27;101902.81;;;4.72;100.00
29461;BME280;16428;47.836;35.106;2022-11-20T03:57:55;101918.19;;;4.56;100.00
29461;BME280;16428;47.836;35.106;2022-11-20T04:00:25;101919.06;;;4.80;100.00
29461;BME280;16428;47.836;35.106;2022-11-20T04:03:00;101909.84;;;4.73;100.00
29461;BME280;16428;47.836;35.106;2022-11-20T04:05:29;101931.34;;;4.70;100.00
29461;BME280;16428;47.836;35.106;2022-11-20T04:07:58;101898.09;;;4.88;100.00
29461;BME280;16428;47.836;35.106;2022-11-20T04:10:26;101888.31;;;4.76;100.00
29461;BME280;16428;47.836;35.106;2022-11-20T04:12:55;101889.47;;;4.85;100.00
29461;BME280;16428;47.836;35.106;2022-11-20T04:15:23;101884.34;;;4.82;100.00
29461;BME280;16428;47.836;35.106;2022-11-20T04:17:54;101878.19;;;4.81;100.00
29461;BME280;16428;47.836;35.106;2022-11-20T04:20:22;101868.50;;;4.80;100.00
29461;BME280;16428;47.836;35.106;2022-11-20T04:22:53;101866.41;;;4.73;100.00
29461;BME280;16428;47.836;35.106;2022-11-20T04:25:22;101851.28;;;4.73;100.00
29461;BME280;16428;47.836;35.106;2022-11-20T04:27:52;101844.97;;;4.74;100.00
29461;BME280;16428;47.836;35.106;2022-11-20T04:30:20;101849.97;;;4.79;100.00
29461;BME280;16428;47.836;35.106;2022-11-20T04:32:50;101821.00;;;4.74;100.00
29461;BME280;16428;47.836;35.106;2022-11-20T04:35:18;101820.63;;;4.68;100.00
29461;BME280;16428;47.836;35.106;2022-11-20T04:37:47;101811.00;;;4.54;100.00
29461;BME280;16428;47.836;35.106;2022-11-20T04:40:15;101800.72;;;4.60;100.00
29461;BME280;16428;47.836;35.106;2022-11-20T04:42:46;101777.41;;;4.64;100.00
29461;BME280;16428;47.836;35.106;2022-11-20T04:45:14;101778.50;;;4.85;100.00
29461;BME280;16428;47.836;35.106;2022-11-20T04:47:46;101772.38;;;4.72;100.00
29461;BME280;16428;47.836;35.106;2022-11-20T04:50:15;101736.69;;;4.75;100.00
29461;BME280;16428;47.836;35.106;2022-11-20T04:52:43;101732.78;;;4.68;100.00
29461;BME280;16428;47.836;35.106;2022-11-20T04:55:12;101757.13;;;4.74;100.00
29461;BME280;16428;47.836;35.106;2022-11-20T04:57:41;101779.56;;;4.59;100.00
29461;BME280;16428;47.836;35.106;2022-11-20T05:00:11;101791.03;;;4.59;100.00
29461;BME280;16428;47.836;35.106;2022-11-20T05:02:41;101787.44;;;4.60;100.00
29461;BME280;16428;47.836;35.106;2022-11-20T05:05:12;101789.97;;;4.62;100.00
29461;BME280;16428;47.836;35.106;2022-11-20T05:07:46;101792.88;;;4.83;100.00
29461;BME280;16428;47.836;35.106;2022-11-20T05:10:16;101793.84;;;4.82;100.00
29461;BME280;16428;47.836;35.106;2022-11-20T05:12:45;101807.03;;;4.83;100.00
29461;BME280;16428;47.836;35.106;2022-11-20T05:15:16;101809.19;;;4.78;100.00
29461;BME280;16428;47.836;35.106;2022-11-20T05:18:12;101802.34;;;4.87;100.00
29461;BME280;16428;47.836;35.106;2022-11-20T05:20:41;101802.91;;;4.79;100.00
29461;BME280;16428;47.836;35.106;2022-11-20T05:23:13;101800.53;;;4.87;100.00
29461;BME280;16428;47.836;35.106;2022-11-20T05:25:43;101801.19;;;4.78;100.00
29461;BME280;16428;47.836;35.106;2022-11-20T05:28:12;101826.69;;;4.93;100.00
29461;BME280;16428;47.836;35.106;2022-11-20T05:30:45;101825.91;;;4.80;100.00
29461;BME280;16428;47.836;35.106;2022-11-20T05:33:16;101835.31;;;4.73;100.00
29461;BME280;16428;47.836;35.106;2022-11-20T05:35:46;101857.09;;;4.78;100.00
29461;BME280;16428;47.836;35.106;2022-11-20T05:38:17;101855.06;;;4.82;100.00
29461;BME280;16428;47.836;35.106;2022-11-20T05:40:46;101833.66;;;4.83;100.00
29461;BME280;16428;47.836;35.106;2022-11-20T05:43:16;101818.13;;;4.77;100.00
29461;BME280;16428;47.836;35.106;2022-11-20T05:45:53;101796.16;;;4.86;100.00
29461;BME280;16428;47.836;35.106;2022-11-20T05:48:27;101799.56;;;4.88;100.00
29461;BME280;16428;47.836;35.106;2022-11-20T05:50:59;101793.31;;;4.77;100.00
29461;BME280;16428;47.836;35.106;2022-11-20T05:53:32;101814.91;;;4.85;100.00
29461;BME280;16428;47.836;35.106;2022-11-20T05:56:07;101826.63;;;4.82;100.00
29461;BME280;16428;47.836;35.106;2022-11-20T05:58:39;101829.09;;;4.85;100.00
29461;BME280;16428;47.836;35.106;2022-11-20T06:03:42;101823.28;;;4.91;100.00
29461;BME280;16428;47.836;35.106;2022-11-20T06:06:20;101810.22;;;4.88;100.00
29461;BME280;16428;47.836;35.106;2022-11-20T06:08:55;101803.06;;;4.89;100.00
29461;BME280;16428;47.836;35.106;2022-11-20T06:11:24;101803.53;;;4.83;100.00
29461;BME280;16428;47.836;35.106;2022-11-20T06:13:54;101833.94;;;4.91;100.00
29461;BME280;16428;47.836;35.106;2022-11-20T06:16:24;101836.75;;;4.77;100.00
29461;BME280;16428;47.836;35.106;2022-11-20T06:18:55;101836.91;;;5.00;100.00
29461;BME280;16428;47.836;35.106;2022-11-20T06:21:23;101864.44;;;4.87;100.00
29461;BME280;16428;47.836;35.106;2022-11-20T06:23:53;101859.91;;;5.01;100.00
29461;BME280;16428;47.836;35.106;2022-11-20T06:26:24;101836.38;;;4.94;100.00
29461;BME280;16428;47.836;35.106;2022-11-20T06:28:55;101821.16;;;4.97;100.00
29461;BME280;16428;47.836;35.106;2022-11-20T06:31:26;101820.63;;;4.91;100.00
29461;BME280;16428;47.836;35.106;2022-11-20T06:33:55;101816.25;;;4.90;100.00
29461;BME280;16428;47.836;35.106;2022-11-20T06:36:24;101820.63;;;4.91;100.00
29461;BME280;16428;47.836;35.106;2022-11-20T06:38:54;101816.06;;;5.05;100.00
29461;BME280;16428;47.836;35.106;2022-11-20T06:41:25;101813.25;;;4.95;100.00
29461;BME280;16428;47.836;35.106;2022-11-20T06:43:55;101804.44;;;4.94;100.00
29461;BME280;16428;47.836;35.106;2022-11-20T06:46:24;101800.28;;;4.90;100.00
29461;BME280;16428;47.836;35.106;2022-11-20T06:48:55;101795.53;;;4.83;100.00
29461;BME280;16428;47.836;35.106;2022-11-20T06:51:23;101809.50;;;4.74;100.00
29461;BME280;16428;47.836;35.106;2022-11-20T06:53:56;101822.50;;;4.78;100.00
29461;BME280;16428;47.836;35.106;2022-11-20T06:56:32;101807.47;;;4.77;100.00
29461;BME280;16428;47.836;35.106;2022-11-20T06:59:04;101810.16;;;4.77;100.00
29461;BME280;16428;47.836;35.106;2022-11-20T07:01:34;101817.97;;;4.91;100.00
29461;BME280;16428;47.836;35.106;2022-11-20T07:04:06;101798.66;;;4.77;100.00
29461;BME280;16428;47.836;35.106;2022-11-20T07:06:36;101794.00;;;4.68;100.00
29461;BME280;16428;47.836;35.106;2022-11-20T07:09:07;101813.50;;;4.92;100.00
29461;BME280;16428;47.836;35.106;2022-11-20T07:11:40;101826.91;;;4.90;100.00
29461;BME280;16428;47.836;35.106;2022-11-20T07:14:10;101805.59;;;4.90;100.00
29461;BME280;16428;47.836;35.106;2022-11-20T07:16:39;101808.63;;;4.86;100.00
29461;BME280;16428;47.836;35.106;2022-11-20T07:19:08;101809.19;;;4.78;100.00
29461;BME280;16428;47.836;35.106;2022-11-20T07:21:39;101806.88;;;4.98;100.00
29461;BME280;16428;47.836;35.106;2022-11-20T07:24:09;101783.88;;;4.97;100.00
29461;BME280;16428;47.836;35.106;2022-11-20T07:26:40;101772.69;;;4.91;100.00
29461;BME280;16428;47.836;35.106;2022-11-20T07:29:10;101794.75;;;4.93;100.00
29461;BME280;16428;47.836;35.106;2022-11-20T07:31:39;101782.84;;;4.86;100.00
29461;BME280;16428;47.836;35.106;2022-11-20T07:34:09;101772.81;;;4.90;100.00
29461;BME280;16428;47.836;35.106;2022-11-20T07:36:37;101780.78;;;5.14;100.00
29461;BME280;16428;47.836;35.106;2022-11-20T07:39:06;101770.03;;;4.91;100.00
29461;BME280;16428;47.836;35.106;2022-11-20T07:41:34;101775.13;;;4.94;100.00
29461;BME280;16428;47.836;35.106;2022-11-20T07:44:05;101777.28;;;4.89;100.00
29461;BME280;16428;47.836;35.106;2022-11-20T07:46:34;101791.66;;;5.11;100.00
29461;BME280;16428;47.836;35.106;2022-11-20T07:49:06;101783.63;;;5.00;100.00
29461;BME280;16428;47.836;35.106;2022-11-20T07:51:39;101776.63;;;4.99;100.00
29461;BME280;16428;47.836;35.106;2022-11-20T07:54:09;101773.03;;;5.11;100.00
29461;BME280;16428;47.836;35.106;2022-11-20T07:56:41;101761.63;;;5.09;100.00
29461;BME280;16428;47.836;35.106;2022-11-20T07:59:11;101767.09;;;4.83;100.00
29461;BME280;16428;47.836;35.106;2022-11-20T08:01:40;101780.34;;;4.96;100.00
29461;BME280;16428;47.836;35.106;2022-11-20T08:04:09;101785.34;;;5.01;100.00
29461;BME280;16428;47.836;35.106;2022-11-20T08:06:40;101757.38;;;5.06;100.00
29461;BME280;16428;47.836;35.106;2022-11-20T08:09:10;101747.25;;;5.11;100.00
29461;BME280;16428;47.836;35.106;2022-11-20T08:11:39;101731.22;;;5.00;100.00
29461;BME280;16428;47.836;35.106;2022-11-20T08:14:28;101731.13;;;5.02;100.00
29461;BME280;16428;47.836;35.106;2022-11-20T08:16:59;101711.41;;;5.15;100.00
29461;BME280;16428;47.836;35.106;2022-11-20T08:19:28;101708.59;;;5.06;100.00
29461;BME280;16428;47.836;35.106;2022-11-20T08:21:59;101692.72;;;5.04;100.00
29461;BME280;16428;47.836;35.106;2022-11-20T08:24:30;101677.66;;;5.16;100.00
29461;BME280;16428;47.836;35.106;2022-11-20T08:27:03;101663.59;;;5.25;100.00
29461;BME280;16428;47.836;35.106;2022-11-20T08:29:35;101652.22;;;5.23;100.00
29461;BME280;16428;47.836;35.106;2022-11-20T08:32:05;101644.72;;;5.17;100.00
29461;BME280;16428;47.836;35.106;2022-11-20T08:34:33;101628.97;;;5.14;100.00
29461;BME280;16428;47.836;35.106;2022-11-20T08:37:02;101619.50;;;5.10;100.00
29461;BME280;16428;47.836;35.106;2022-11-20T08:39:31;101636.72;;;5.17;100.00
29461;BME280;16428;47.836;35.106;2022-11-20T08:42:01;101625.00;;;5.19;100.00
29461;BME280;16428;47.836;35.106;2022-11-20T08:44:29;101606.19;;;5.10;100.00
29461;BME280;16428;47.836;35.106;2022-11-20T08:47:00;101608.41;;;5.16;100.00
29461;BME280;16428;47.836;35.106;2022-11-20T08:49:28;101607.91;;;5.22;100.00
29461;BME280;16428;47.836;35.106;2022-11-20T08:51:57;101607.66;;;5.25;100.00
29461;BME280;16428;47.836;35.106;2022-11-20T08:54:26;101603.28;;;5.24;100.00
29461;BME280;16428;47.836;35.106;2022-11-20T08:57:01;101609.34;;;5.26;100.00
29461;BME280;16428;47.836;35.106;2022-11-20T08:59:29;101620.63;;;5.29;100.00
29461;BME280;16428;47.836;35.106;2022-11-20T09:02:20;101628.25;;;5.23;100.00
29461;BME280;16428;47.836;35.106;2022-11-20T09:04:50;101626.56;;;5.33;100.00
29461;BME280;16428;47.836;35.106;2022-11-20T09:07:20;101617.34;;;5.26;100.00
29461;BME280;16428;47.836;35.106;2022-11-20T09:09:49;101601.59;;;5.12;100.00
29461;BME280;16428;47.836;35.106;2022-11-20T09:12:48;101586.84;;;5.19;100.00
29461;BME280;16428;47.836;35.106;2022-11-20T09:15:22;101565.28;;;5.00;100.00
29461;BME280;16428;47.836;35.106;2022-11-20T09:18:00;101557.28;;;5.11;100.00
29461;BME280;16428;47.836;35.106;2022-11-20T09:20:30;101556.31;;;5.12;100.00
29461;BME280;16428;47.836;35.106;2022-11-20T09:22:59;101541.56;;;5.08;100.00
29461;BME280;16428;47.836;35.106;2022-11-20T09:25:29;101530.19;;;5.17;100.00
29461;BME280;16428;47.836;35.106;2022-11-20T09:28:00;101524.00;;;5.05;100.00
29461;BME280;16428;47.836;35.106;2022-11-20T09:30:32;101526.66;;;4.94;100.00
29461;BME280;16428;47.836;35.106;2022-11-20T09:33:06;101527.03;;;4.89;100.00
29461;BME280;16428;47.836;35.106;2022-11-20T09:35:35;101516.13;;;4.92;100.00
29461;BME280;16428;47.836;35.106;2022-11-20T09:38:07;101520.72;;;4.90;100.00
29461;BME280;16428;47.836;35.106;2022-11-20T09:40:42;101515.28;;;4.81;100.00
29461;BME280;16428;47.836;35.106;2022-11-20T09:43:54;101514.94;;;4.85;100.00
29461;BME280;16428;47.836;35.106;2022-11-20T09:47:03;101495.81;;;4.80;100.00
29461;BME280;16428;47.836;35.106;2022-11-20T09:55:58;101482.75;;;4.66;100.00
29461;BME280;16428;47.836;35.106;2022-11-20T09:58:52;101477.19;;;4.69;100.00
29461;BME280;16428;47.836;35.106;2022-11-20T10:01:24;101485.91;;;4.71;100.00
29461;BME280;16428;47.836;35.106;2022-11-20T10:04:27;101470.28;;;4.78;100.00
29461;BME280;16428;47.836;35.106;2022-11-20T10:07:13;101465.34;;;4.84;100.00
29461;BME280;16428;47.836;35.106;2022-11-20T10:10:01;101475.97;;;4.84;100.00
29461;BME280;16428;47.836;35.106;2022-11-20T10:18:49;101469.94;;;4.71;100.00
29461;BME280;16428;47.836;35.106;2022-11-20T10:30:18;101465.09;;;4.87;100.00
29461;BME280;16428;47.836;35.106;2022-11-20T10:38:43;101415.97;;;4.69;100.00
29461;BME280;16428;47.836;35.106;2022-11-20T10:41:40;101401.19;;;4.76;100.00
29461;BME280;16428;47.836;35.106;2022-11-20T10:44:20;101402.44;;;4.72;100.00
29461;BME280;16428;47.836;35.106;2022-11-20T10:47:17;101416.72;;;4.71;100.00
29461;BME280;16428;47.836;35.106;2022-11-20T10:49:53;101427.94;;;4.75;100.00
29461;BME280;16428;47.836;35.106;2022-11-20T10:55:46;101427.22;;;4.73;100.00
29461;BME280;16428;47.836;35.106;2022-11-20T11:01:29;101417.19;;;4.87;100.00
29461;BME280;16428;47.836;35.106;2022-11-20T11:03:59;101416.91;;;4.90;100.00
29461;BME280;16428;47.836;35.106;2022-11-20T11:06:37;101420.56;;;4.78;100.00
29461;BME280;16428;47.836;35.106;2022-11-20T11:09:21;101426.38;;;4.83;100.00
29461;BME280;16428;47.836;35.106;2022-11-20T11:11:55;101413.03;;;4.94;100.00
29461;BME280;16428;47.836;35.106;2022-11-20T11:14:49;101403.34;;;4.93;100.00
29461;BME280;16428;47.836;35.106;2022-11-20T11:17:32;101388.34;;;4.92;100.00
29461;BME280;16428;47.836;35.106;2022-11-20T11:20:26;101382.56;;;4.76;100.00
29461;BME280;16428;47.836;35.106;2022-11-20T11:23:00;101380.16;;;4.84;100.00
29461;BME280;16428;47.836;35.106;2022-11-20T11:25:32;101381.94;;;4.95;100.00
29461;BME280;16428;47.836;35.106;2022-11-20T11:28:23;101378.44;;;4.83;100.00
29461;BME280;16428;47.836;35.106;2022-11-20T11:31:00;101356.78;;;4.88;100.00
29461;BME280;16428;47.836;35.106;2022-11-20T11:33:32;101361.97;;;4.89;100.00
29461;BME280;16428;47.836;35.106;2022-11-20T11:36:18;101367.28;;;4.89;100.00
29461;BME280;16428;47.836;35.106;2022-11-20T11:38:52;101368.97;;;4.90;100.00
29461;BME280;16428;47.836;35.106;2022-11-20T11:41:26;101368.50;;;4.97;100.00
29461;BME280;16428;47.836;35.106;2022-11-20T11:44:04;101353.97;;;5.01;100.00
29461;BME280;16428;47.836;35.106;2022-11-20T11:47:15;101353.13;;;5.00;100.00
29461;BME280;16428;47.836;35.106;2022-11-20T11:49:49;101346.09;;;4.99;100.00
29461;BME280;16428;47.836;35.106;2022-11-20T11:52:22;101348.53;;;5.02;100.00
29461;BME280;16428;47.836;35.106;2022-11-20T11:54:55;101346.22;;;4.98;100.00
29461;BME280;16428;47.836;35.106;2022-11-20T11:58:00;101332.16;;;5.07;100.00
29461;BME280;16428;47.836;35.106;2022-11-20T12:00:35;101343.88;;;5.04;100.00
29461;BME280;16428;47.836;35.106;2022-11-20T12:03:24;101337.81;;;5.13;100.00
29461;BME280;16428;47.836;35.106;2022-11-20T12:06:36;101320.16;;;5.12;100.00
29461;BME280;16428;47.836;35.106;2022-11-20T12:09:16;101311.06;;;5.15;100.00
29461;BME280;16428;47.836;35.106;2022-11-20T12:12:32;101313.63;;;5.05;100.00
29461;BME280;16428;47.836;35.106;2022-11-20T12:15:15;101309.16;;;5.06;100.00
29461;BME280;16428;47.836;35.106;2022-11-20T12:17:58;101307.81;;;5.11;100.00
29461;BME280;16428;47.836;35.106;2022-11-20T12:30:19;101298.13;;;5.10;100.00
29461;BME280;16428;47.836;35.106;2022-11-20T12:33:15;101282.03;;;5.12;100.00
29461;BME280;16428;47.836;35.106;2022-11-20T12:36:25;101275.25;;;5.08;100.00
29461;BME280;16428;47.836;35.106;2022-11-20T12:42:30;101253.84;;;5.09;100.00
29461;BME280;16428;47.836;35.106;2022-11-20T12:55:42;101233.59;;;5.18;100.00
29461;BME280;16428;47.836;35.106;2022-11-20T13:05:51;101216.56;;;5.30;100.00
29461;BME280;16428;47.836;35.106;2022-11-20T13:08:36;101227.41;;;5.17;100.00
29461;BME280;16428;47.836;35.106;2022-11-20T13:15:14;101207.63;;;5.20;100.00
29461;BME280;16428;47.836;35.106;2022-11-20T13:18:12;101201.09;;;5.24;100.00
29461;BME280;16428;47.836;35.106;2022-11-20T13:21:34;101196.03;;;5.21;100.00
29461;BME280;16428;47.836;35.106;2022-11-20T13:24:59;101204.38;;;5.37;100.00
29461;BME280;16428;47.836;35.106;2022-11-20T13:31:29;101195.16;;;5.41;100.00
29461;BME280;16428;47.836;35.106;2022-11-20T13:34:32;101194.19;;;5.42;100.00
29461;BME280;16428;47.836;35.106;2022-11-20T13:37:35;101192.00;;;5.47;100.00
29461;BME280;16428;47.836;35.106;2022-11-20T13:41:22;101207.78;;;5.39;100.00
29461;BME280;16428;47.836;35.106;2022-11-20T13:43:54;101206.53;;;5.43;100.00
29461;BME280;16428;47.836;35.106;2022-11-20T13:46:46;101201.84;;;5.56;100.00
29461;BME280;16428;47.836;35.106;2022-11-20T13:49:38;101200.41;;;5.52;100.00
29461;BME280;16428;47.836;35.106;2022-11-20T13:52:39;101198.09;;;5.69;100.00
29461;BME280;16428;47.836;35.106;2022-11-20T13:58:36;101184.78;;;5.69;100.00
29461;BME280;16428;47.836;35.106;2022-11-20T14:01:15;101194.72;;;5.66;100.00
29461;BME280;16428;47.836;35.106;2022-11-20T14:03:48;101197.69;;;5.63;100.00
29461;BME280;16428;47.836;35.106;2022-11-20T14:06:44;101197.81;;;5.62;100.00
29461;BME280;16428;47.836;35.106;2022-11-20T14:09:31;101191.53;;;5.73;100.00
29461;BME280;16428;47.836;35.106;2022-11-20T14:12:31;101190.16;;;5.78;100.00
29461;BME280;16428;47.836;35.106;2022-11-20T14:15:33;101179.19;;;5.81;100.00
29461;BME280;16428;47.836;35.106;2022-11-20T14:18:22;101169.38;;;5.72;100.00
29461;BME280;16428;47.836;35.106;2022-11-20T14:21:05;101160.25;;;5.75;100.00
29461;BME280;16428;47.836;35.106;2022-11-20T14:23:48;101160.53;;;5.72;100.00
29461;BME280;16428;47.836;35.106;2022-11-20T14:26:33;101172.00;;;5.93;100.00
29461;BME280;16428;47.836;35.106;2022-11-20T14:29:23;101170.81;;;5.86;100.00
29461;BME280;16428;47.836;35.106;2022-11-20T14:31:56;101165.03;;;5.81;100.00
29461;BME280;16428;47.836;35.106;2022-11-20T14:34:29;101154.09;;;5.84;100.00
29461;BME280;16428;47.836;35.106;2022-11-20T14:37:01;101151.69;;;5.81;100.00
29461;BME280;16428;47.836;35.106;2022-11-20T14:39:47;101141.13;;;5.90;100.00
29461;BME280;16428;47.836;35.106;2022-11-20T14:42:27;101137.47;;;5.91;100.00
29461;BME280;16428;47.836;35.106;2022-11-20T14:44:59;101133.00;;;5.92;100.00
29461;BME280;16428;47.836;35.106;2022-11-20T14:47:30;101138.81;;;5.86;100.00
29461;BME280;16428;47.836;35.106;2022-11-20T14:50:00;101135.22;;;5.96;100.00